Inicio METAR Ruta Wind Satelite

Informe Meteorológico

Fecha: 2020/07/13 01:53:44 Local
2020.07.13 06:53 UTC


Estado: VENCIDO
Operación:VFR
Villavicencio / Vanguardia, Colombia (SKVV) 04-10N 073-37W 431M
2020.07.12 2300 UTC
Wind: from the SE (130 degrees) at 3 MPH (3 KT):0
Visibility: greater than 7 mile(s):0
Sky conditions: partly cloudy
Weather: showers in the vicinity
Temperature: 80 F (27 C)
Dew Point: 71 F (22 C)
Relative Humidity: 74%
Pressure (altimeter): 29.91 in. Hg (1012 hPa)
ob: SKVV 122300Z 13003KT 9999 VCSH SCT020 27/22 A2991 RMK VCSH/N
cycle: 23

SKVV 122200Z 11005KT 9999 SCT020 28/21 A2990
SKVV 122100Z 10003KT 9999 SCT020 30/21 A2989
SKVV 122000Z 07003KT 9999 SCT020 30/21 A2990
SKVV 121900Z 08004KT 9999 SCT020 30/21 A2995
SKVV 121800Z 06003KT 9999 SCT017 BKN090 29/22 A2998